Terminal Aerodrome Forecast
Issued by NWS Omaha/Valley, NE

Home | Current Version | Previous Version | Text Only | Print | Product List | Glossary On
Versions: 1 2 3 4 5 6 7 8 9 10 11 12 13 14 15 16 17 18 19 20 21 22 23 24 25 26 27 28 29 30 31 32
000
FTUS43 KOAX 161120
TAFLNK
TAF
KLNK 161120Z 1612/1712 17003KT P6SM SCT009
      TEMPO 1612/1614 4SM BR
     FM161500 17009KT P6SM SCT025
     FM161800 18013KT P6SM SCT050 BKN100
     FM162300 17007KT P6SM SCT250
      TEMPO 1709/1712 4SM BR=

USA.gov is the U.S. government's official web portal to all federal, state and local government web resources and services.